ウシュアイア の空港の天気 - METARとTAF

ウシュアイア空港 ( SAWH / USH ) - アルゼンチン ティエラ・デル・フエゴ州、ウシュアイア
飛行場実況気象(Metar)
観測時間04/24 23:00 ART (04/25 02:00 UTC)
風向・風速南西 4m/s
視程10km以上
天気現象
全天の4割程度の雲 雲底高度 1370m
気温7℃
湿度76%
気圧1000hPa
METARSAWH 250200Z 23007KT 9999 SCT045 07/03 Q1000
過去の天気等 Google飛行場航空写真 Wunderground天気予報

過去48時間のMETAR

飛行場予報(TAF)
発表時間: 4/25 02:00 ART (4/25 05:00 UTC)
予報対象時間: 25日3時 ART ~ 26日3時 ART
風向・風速北西 5m/s
視程10km以上
天気現象弱いしゅう雨
全天の8割程度の雲 雲底高度 910m
25日11時 ART ~ 25日13時 ART に徐々に
風向・風速南東 4m/s
TAF SAWH 250500Z 2506/2606 32010KT 9999 -SHRA BKN030 TX08/2519Z TN03/2510Z
BECMG 2514/2516 14008KT